Sto Camellia — D7LH — position and weather

sailwx.info

Track history (hours):
 
Tides and Currents Weather Stations Pressure Air Temp Water Temp Dewpoint Dewpoint Depression Visibility Wind Speed Wind Dir Waves Ship Positions

Sto Camellia

Last reported at 2017-Feb-16 19:24 UTC. Time now 2017-Feb-23 16:15 UTC.
Position N 30°60' E 122°52'.

Length 121 m; draft 5.2 m.

Type: Ship (hazmat cat B). MMSI: 440036000.

Date/timePositionNaut miles runAvg speedWind from/ knotsBaromVisibWave heightAir tempDewpointWater temp
2017-Feb-16 19:24N 30°60' E 122°52'0 0.0
2017-Feb-16 12:24N 30°60' E 122°52'0 0.0
2017-Feb-16 11:33N 30°60' E 122°52'27 1.5
2017-Feb-15 17:10N 31°01' E 122°20'711.7
2017-Feb-15 16:33N 31°03' E 122°12'1010.3
2017-Feb-15 15:33N 31°05' E 122°01'8 7.6
2017-Feb-15 14:33N 31°09' E 121°53'1414.4
2017-Feb-15 13:33N 31°20' E 121°41'1110.9
2017-Feb-15 12:33N 31°25' E 121°31'1111.3
2017-Feb-15 11:33N 31°33' E 121°20'1413.9
2017-Feb-15 10:34N 31°42' E 121°09'1211.7
2017-Feb-15 09:34N 31°48' E 120°57'1 0.1
2017-Feb-14 09:10N 31°47' E 120°58'6 6.7
2017-Feb-14 08:21N 31°51' E 120°54'2 0.2
2017-Feb-13 21:11N 31°53' E 120°54'0 0.0
2017-Feb-13 20:23N 31°53' E 120°54'0 0.0
2017-Feb-13 19:30N 31°53' E 120°54'0 0.1
2017-Feb-13 18:30N 31°53' E 120°54'13 1.0
2017-Feb-13 05:33N 31°45' E 121°05'1414.5
2017-Feb-13 04:33N 31°35' E 121°18'1312.5
2017-Feb-13 03:33N 31°27' E 121°29'10 9.9
2017-Feb-13 02:33N 31°22' E 121°38'1211.9
2017-Feb-13 01:33N 31°17' E 121°51'10 9.7
2017-Feb-13 00:33N 31°15' E 122°02'9 8.9
2017-Feb-12 23:33N 31°10' E 122°11'10 9.6
2017-Feb-12 22:33N 31°06' E 122°21'9 9.3
2017-Feb-12 21:33N 31°07' E 122°32'7 6.9
2017-Feb-12 20:33N 31°07' E 122°40'  
Track history (hours):
 
Tides and Currents Weather Stations Pressure Air Temp Water Temp Dewpoint Dewpoint Depression Visibility Wind Speed Wind Dir Waves Ship Positions

Sto Camellia

Last reported at 2017-Feb-16 19:24 UTC. Time now 2017-Feb-23 16:15 UTC.
Position N 30°60' E 122°52'.

Length 121 m; draft 5.2 m.

Type: Ship (hazmat cat B). MMSI: 440036000.

Date/timePositionNaut miles runAvg speedWind from/ knotsBaromVisibWave heightAir tempDewpointWater temp
2017-Feb-16 19:24N 30°60' E 122°52'0 0.0
2017-Feb-16 12:24N 30°60' E 122°52'0 0.0
2017-Feb-16 11:33N 30°60' E 122°52'27 1.5
2017-Feb-15 17:10N 31°01' E 122°20'711.7
2017-Feb-15 16:33N 31°03' E 122°12'1010.3
2017-Feb-15 15:33N 31°05' E 122°01'8 7.6
2017-Feb-15 14:33N 31°09' E 121°53'1414.4
2017-Feb-15 13:33N 31°20' E 121°41'1110.9
2017-Feb-15 12:33N 31°25' E 121°31'1111.3
2017-Feb-15 11:33N 31°33' E 121°20'1413.9
2017-Feb-15 10:34N 31°42' E 121°09'1211.7
2017-Feb-15 09:34N 31°48' E 120°57'1 0.1
2017-Feb-14 09:10N 31°47' E 120°58'6 6.7
2017-Feb-14 08:21N 31°51' E 120°54'2 0.2
2017-Feb-13 21:11N 31°53' E 120°54'0 0.0
2017-Feb-13 20:23N 31°53' E 120°54'0 0.0
2017-Feb-13 19:30N 31°53' E 120°54'0 0.1
2017-Feb-13 18:30N 31°53' E 120°54'13 1.0
2017-Feb-13 05:33N 31°45' E 121°05'1414.5
2017-Feb-13 04:33N 31°35' E 121°18'1312.5
2017-Feb-13 03:33N 31°27' E 121°29'10 9.9
2017-Feb-13 02:33N 31°22' E 121°38'1211.9
2017-Feb-13 01:33N 31°17' E 121°51'10 9.7
2017-Feb-13 00:33N 31°15' E 122°02'9 8.9
2017-Feb-12 23:33N 31°10' E 122°11'10 9.6
2017-Feb-12 22:33N 31°06' E 122°21'9 9.3
2017-Feb-12 21:33N 31°07' E 122°32'7 6.9
2017-Feb-12 20:33N 31°07' E 122°40'  

Dump ship's entire track history